Time;durP1;ratioP1;P1;durP2;ratioP2;P2;SDS_P1;SDS_P2;PMS_P1;PMS_P2;Temp;Humidity;BMP_temperature;BMP_pressure;BME280_temperature;BME280_humidity;BME280_pressure;Samples;Min_cycle;Max_cycle;Signal;HPM_P1;HPM_P2
2023/07/21 00:01:43;;;;;;;12.57;5.53;;;;;;;22.55;63.35;99934.97;126715;1086;110814;-77
2023/07/21 00:04:13;;;;;;;11.37;5.87;;;;;;;22.53;63.71;99943.03;126678;1086;104178;-77
2023/07/21 00:06:44;;;;;;;13.20;5.93;;;;;;;22.50;63.97;99940.42;126693;1086;104171;-77
2023/07/21 00:09:13;;;;;;;11.90;5.90;;;;;;;22.48;64.27;99936.02;126599;1086;104309;-77
2023/07/21 00:11:41;;;;;;;14.70;5.83;;;;;;;22.44;64.19;99937.89;126289;1086;104220;-77
2023/07/21 00:14:10;;;;;;;10.30;5.70;;;;;;;22.41;64.12;99940.63;126613;1086;101957;-77
2023/07/21 00:16:39;;;;;;;11.10;5.33;;;;;;;22.39;64.10;99945.10;126416;1086;102853;-77
2023/07/21 00:19:08;;;;;;;12.67;6.00;;;;;;;22.40;63.98;99946.88;126686;1086;104258;-77
2023/07/21 00:21:36;;;;;;;11.57;6.07;;;;;;;22.39;64.31;99951.35;126723;1086;102204;-77
2023/07/21 00:24:06;;;;;;;10.00;5.40;;;;;;;22.35;63.85;99949.64;126706;1086;104302;-77
2023/07/21 00:26:35;;;;;;;11.83;6.07;;;;;;;22.29;64.40;99954.22;126661;1086;104161;-77
2023/07/21 00:29:04;;;;;;;13.93;6.00;;;;;;;22.24;64.15;99955.19;126639;1086;101851;-77
2023/07/21 00:31:33;;;;;;;12.90;6.13;;;;;;;22.20;64.60;99960.63;126583;1086;101858;-77
2023/07/21 00:34:04;;;;;;;11.80;5.40;;;;;;;22.15;64.48;99957.17;126598;1086;104245;-77
2023/07/21 00:36:33;;;;;;;11.27;6.13;;;;;;;22.12;64.70;99962.58;126651;1086;101976;-77
2023/07/21 00:39:03;;;;;;;12.30;5.50;;;;;;;22.12;64.46;99962.58;126558;1085;104210;-77
2023/07/21 00:41:32;;;;;;;10.40;5.60;;;;;;;22.10;64.38;99970.63;126386;1086;104220;-77
2023/07/21 00:44:01;;;;;;;10.40;5.53;;;;;;;22.08;64.42;99964.45;126327;1086;104334;-76
2023/07/21 00:46:29;;;;;;;12.73;5.80;;;;;;;22.06;64.35;99969.82;126419;1086;101934;-77
2023/07/21 00:48:58;;;;;;;10.40;5.40;;;;;;;22.02;64.67;99961.90;126688;1086;104247;-77
2023/07/21 00:51:28;;;;;;;10.60;5.40;;;;;;;22.00;64.65;99966.37;126594;1086;103364;-77
2023/07/21 00:53:57;;;;;;;9.87;5.90;;;;;;;21.95;65.25;99970.92;126586;1086;102009;-77
2023/07/21 00:56:25;;;;;;;10.53;5.60;;;;;;;21.92;64.90;99973.66;126354;1086;104146;-76
2023/07/21 00:58:54;;;;;;;12.27;5.63;;;;;;;21.88;64.77;99962.16;126558;1086;104174;-77
2023/07/21 01:01:23;;;;;;;11.77;5.77;;;;;;;21.86;65.61;99962.20;126612;1086;104216;-77
2023/07/21 01:03:52;;;;;;;11.07;5.50;;;;;;;21.81;64.83;99969.39;126582;1086;104290;-77
2023/07/21 01:06:21;;;;;;;13.63;5.93;;;;;;;21.78;64.95;99966.78;126565;1085;104176;-77
2023/07/21 01:08:50;;;;;;;10.07;5.83;;;;;;;21.77;65.64;99966.81;126580;1086;102364;-77
2023/07/21 01:11:19;;;;;;;10.87;5.80;;;;;;;21.76;65.94;99971.28;126616;1086;102205;-77
2023/07/21 01:13:48;;;;;;;12.70;5.90;;;;;;;21.75;65.99;99966.84;126599;1086;104248;-77
2023/07/21 01:16:17;;;;;;;10.30;5.67;;;;;;;21.73;65.83;99971.34;126573;1086;104177;-77
2023/07/21 01:18:46;;;;;;;10.70;5.80;;;;;;;21.70;65.48;99974.06;126602;1086;104232;-77
2023/07/21 01:21:22;;;;;;;12.80;5.73;;;;;;;21.65;66.02;99973.27;126617;1086;104227;-78
2023/07/21 01:23:59;;;;;;;11.03;5.40;;;;;;;21.62;66.29;99981.34;126549;1086;104133;-78
2023/07/21 01:26:29;;;;;;;11.57;5.70;;;;;;;21.55;66.25;99972.57;126655;1086;104235;-78
2023/07/21 01:28:58;;;;;;;13.33;5.97;;;;;;;21.49;66.11;99967.34;126708;1086;104158;-78
2023/07/21 01:31:27;;;;;;;12.27;6.10;;;;;;;21.45;66.95;99971.80;126578;1086;104116;-78
2023/07/21 01:33:57;;;;;;;11.83;5.97;;;;;;;21.42;66.60;99973.64;126637;1086;104213;-78
2023/07/21 01:36:27;;;;;;;14.97;5.80;;;;;;;21.41;67.21;99977.20;126566;1085;104341;-78
2023/07/21 01:38:56;;;;;;;11.20;6.03;;;;;;;21.39;66.54;99989.70;126595;1086;102264;-78
2023/07/21 01:41:26;;;;;;;9.30;5.50;;;;;;;21.36;67.38;99987.96;126649;1086;104270;-78
2023/07/21 01:43:55;;;;;;;12.23;6.00;;;;;;;21.34;67.69;99989.78;126629;1085;104181;-78
2023/07/21 01:46:24;;;;;;;11.73;6.00;;;;;;;21.31;66.96;99997.84;126505;1086;101917;-78
2023/07/21 01:48:53;;;;;;;11.20;5.67;;;;;;;21.26;67.63;100002.38;126575;1086;104136;-78
2023/07/21 01:51:22;;;;;;;11.57;5.77;;;;;;;21.22;67.34;100001.53;126594;1086;104200;-77
2023/07/21 01:53:56;;;;;;;12.10;6.00;;;;;;;21.17;67.99;100004.27;126549;1086;101890;-78
2023/07/21 01:56:31;;;;;;;13.47;5.97;;;;;;;21.14;68.53;100008.78;126423;1086;101912;-77
2023/07/21 01:59:04;;;;;;;12.30;6.13;;;;;;;21.09;68.06;100002.64;126378;1086;102136;-78
2023/07/21 02:01:33;;;;;;;11.78;6.20;;;;;;;21.08;68.22;100014.20;126281;1086;102428;-78
2023/07/21 02:04:02;;;;;;;11.23;6.10;;;;;;;21.00;68.60;100017.89;126646;1086;104178;-77
2023/07/21 02:06:32;;;;;;;11.87;5.93;;;;;;;21.00;68.09;100024.98;126625;1086;104161;-78
2023/07/21 02:09:03;;;;;;;10.40;6.00;;;;;;;20.96;68.84;100023.30;126604;1086;104242;-78
2023/07/21 02:11:31;;;;;;;13.80;6.43;;;;;;;20.90;68.32;100037.59;126303;1087;104216;-77
2023/07/21 02:14:10;;;;;;;13.53;6.40;;;;;;;20.88;69.75;100033.16;126273;1087;107816;-77
2023/07/21 02:16:38;;;;;;;12.07;6.40;;;;;;;20.82;69.59;100043.02;126348;1086;103428;-78
2023/07/21 02:19:07;;;;;;;13.20;6.43;;;;;;;20.82;69.14;100044.81;126566;1086;101788;-77
2023/07/21 02:21:35;;;;;;;12.83;6.20;;;;;;;20.78;69.62;100054.62;126685;1086;102073;-78
2023/07/21 02:24:05;;;;;;;11.17;6.40;;;;;;;20.78;68.75;100054.62;126345;1086;102960;-78
2023/07/21 02:26:33;;;;;;;14.23;6.33;;;;;;;20.75;69.05;100053.79;126599;1086;104216;-78
2023/07/21 02:29:02;;;;;;;12.17;6.00;;;;;;;20.75;69.31;100059.99;126605;1086;104322;-78
2023/07/21 02:31:31;;;;;;;12.43;6.13;;;;;;;20.75;69.55;100061.78;126451;1086;104166;-78
2023/07/21 02:34:00;;;;;;;12.10;5.80;;;;;;;20.74;69.35;100060.91;126671;1086;104145;-78
2023/07/21 02:36:28;;;;;;;13.90;5.83;;;;;;;20.73;68.92;100067.14;126382;1086;102281;-77
2023/07/21 02:38:57;;;;;;;13.33;6.03;;;;;;;20.72;69.47;100072.49;126680;1086;101864;-78
2023/07/21 02:41:26;;;;;;;13.23;5.87;;;;;;;20.74;69.36;100078.67;126687;1086;102169;-77
2023/07/21 02:43:55;;;;;;;12.70;6.00;;;;;;;20.72;69.71;100080.48;126684;1086;104165;-78
2023/07/21 02:46:23;;;;;;;11.17;5.97;;;;;;;20.72;68.72;100089.36;126354;1086;102299;-77
2023/07/21 02:48:54;;;;;;;12.97;6.27;;;;;;;20.69;69.39;100092.06;126633;1086;104180;-78
2023/07/21 02:51:22;;;;;;;12.30;6.33;;;;;;;20.64;69.63;100089.45;126611;1085;103368;-78
2023/07/21 02:53:52;;;;;;;13.90;6.83;;;;;;;20.63;69.54;100097.44;126651;1086;104238;-78
2023/07/21 02:56:21;;;;;;;14.40;6.80;;;;;;;20.58;69.62;100100.16;126640;1086;104232;-80
2023/07/21 02:59:05;;;;;;;12.13;6.50;;;;;;;20.55;70.86;100097.52;126530;1086;102119;-78
2023/07/21 03:01:34;;;;;;;13.40;6.43;;;;;;;20.53;70.78;100095.80;126688;1086;104159;-78
2023/07/21 03:04:04;;;;;;;14.00;6.80;;;;;;;20.47;71.06;100102.06;126379;1086;101971;-77
2023/07/21 03:06:35;;;;;;;12.97;6.70;;;;;;;20.42;71.14;100098.58;126374;1086;102375;-78
2023/07/21 03:09:05;;;;;;;14.57;6.77;;;;;;;20.41;71.67;100100.38;126427;1086;103314;-78
2023/07/21 03:11:35;;;;;;;15.80;7.50;;;;;;;20.40;71.08;100114.59;126365;1086;101860;-77
2023/07/21 03:14:13;;;;;;;16.37;7.60;;;;;;;20.39;72.03;100119.93;126409;1086;102431;-77
2023/07/21 03:16:42;;;;;;;15.17;7.17;;;;;;;20.37;71.30;100116.41;126373;1086;101911;-77
2023/07/21 03:19:12;;;;;;;14.73;7.17;;;;;;;20.35;72.20;100119.09;126654;1086;101826;-78
2023/07/21 03:21:43;;;;;;;13.03;7.00;;;;;;;20.37;71.20;100116.41;126537;1086;104303;-78
2023/07/21 03:24:14;;;;;;;15.10;7.73;;;;;;;20.37;72.40;100125.28;126815;1084;104254;-78
2023/07/21 03:26:42;;;;;;;13.83;6.60;;;;;;;20.38;71.89;100121.72;126367;1086;104318;-78
2023/07/21 03:29:11;;;;;;;17.30;7.50;;;;;;;20.33;72.24;100110.21;126351;1086;104354;-78
2023/07/21 03:31:41;;;;;;;17.40;6.67;;;;;;;20.42;71.89;100126.10;126491;1086;104210;-78
2023/07/21 03:34:14;;;;;;;15.87;7.30;;;;;;;20.43;72.19;100127.88;126685;1086;103559;-78
2023/07/21 03:36:43;;;;;;;13.40;6.70;;;;;;;20.43;71.79;100138.53;126692;1086;104159;-77
2023/07/21 03:39:11;;;;;;;19.93;6.77;;;;;;;20.48;72.50;100136.70;126737;1086;101840;-78
2023/07/21 03:41:40;;;;;;;12.03;7.03;;;;;;;20.54;72.80;100134.89;126380;1086;104367;-77
2023/07/21 03:44:09;;;;;;;18.27;6.87;;;;;;;20.57;71.80;100142.81;126319;1086;104264;-77
2023/07/21 03:46:40;;;;;;;15.50;7.80;;;;;;;20.59;72.69;100149.91;126340;1086;104242;-78
2023/07/21 03:49:15;;;;;;;15.10;7.17;;;;;;;20.62;73.21;100155.20;126463;1086;104148;-77
2023/07/21 03:51:48;;;;;;;18.07;7.35;;;;;;;20.61;72.77;100157.89;126213;1086;104236;-77
2023/07/21 03:54:17;;;;;;;17.73;7.07;;;;;;;20.63;71.78;100150.74;126487;1086;101956;-77
2023/07/21 03:56:46;;;;;;;16.00;7.30;;;;;;;20.67;72.62;100159.65;126407;1086;104228;-76
2023/07/21 03:59:15;;;;;;;17.90;7.73;;;;;;;20.71;72.62;100164.02;126245;1086;104249;-75
2023/07/21 04:01:43;;;;;;;14.73;7.10;;;;;;;20.72;72.70;100166.67;126175;1086;104181;-77
2023/07/21 04:04:12;;;;;;;13.87;7.23;;;;;;;20.73;72.75;100171.11;126480;1086;102113;-76
2023/07/21 04:06:44;;;;;;;18.47;7.70;;;;;;;20.76;73.22;100171.08;126392;1086;104334;-76
2023/07/21 04:09:13;;;;;;;16.97;7.23;;;;;;;20.74;72.71;100178.22;126876;1086;104188;-77
2023/07/21 04:11:42;;;;;;;17.80;7.43;;;;;;;20.74;73.78;100180.89;126432;1086;101858;-76
2023/07/21 04:14:11;;;;;;;12.13;7.10;;;;;;;20.72;74.11;100182.67;126790;1086;102369;-77
2023/07/21 04:16:40;;;;;;;13.73;7.33;;;;;;;20.73;73.17;100180.91;126614;1086;103556;-77
2023/07/21 04:19:09;;;;;;;15.60;7.10;;;;;;;20.73;74.09;100184.45;126319;1086;104255;-77
2023/07/21 04:21:38;;;;;;;16.45;7.20;;;;;;;20.77;73.41;100180.86;126425;1086;104235;-77
2023/07/21 04:24:07;;;;;;;17.93;7.30;;;;;;;20.82;73.61;100181.67;126467;1086;101817;-77
2023/07/21 04:26:36;;;;;;;17.40;7.47;;;;;;;20.85;73.81;100187.87;126437;1086;104220;-77
2023/07/21 04:29:04;;;;;;;15.13;7.33;;;;;;;20.87;73.37;100180.75;126703;1086;104228;-79
2023/07/21 04:31:37;;;;;;;19.40;7.43;;;;;;;20.91;74.37;100186.03;126630;1086;104261;-78
2023/07/21 04:34:09;;;;;;;14.63;6.80;;;;;;;20.93;73.40;100186.02;126642;1086;104302;-78
2023/07/21 04:36:40;;;;;;;12.97;6.43;;;;;;;20.99;73.22;100191.28;126644;1086;103661;-79
2023/07/21 04:39:23;;;;;;;14.83;7.30;;;;;;;21.03;72.93;100190.31;126715;1086;104267;-79
2023/07/21 04:41:53;;;;;;;15.17;6.80;;;;;;;21.08;74.21;100191.13;127012;1086;102235;-75
2023/07/21 04:44:22;;;;;;;11.80;6.10;;;;;;;21.17;73.12;100198.15;126833;1086;104348;-76
2023/07/21 04:46:51;;;;;;;14.00;6.30;;;;;;;21.22;73.31;100200.77;126365;1086;101858;-75
2023/07/21 04:49:22;;;;;;;12.63;6.40;;;;;;;21.26;73.40;100202.50;126354;1086;102577;-76
2023/07/21 04:51:53;;;;;;;14.67;6.67;;;;;;;21.29;73.24;100200.66;126689;1086;101960;-75
2023/07/21 04:54:22;;;;;;;11.97;6.43;;;;;;;21.32;73.55;100203.29;126034;1086;102858;-74
2023/07/21 04:57:00;;;;;;;12.47;6.77;;;;;;;21.39;73.64;100198.74;126004;1086;104175;-74
2023/07/21 04:59:29;;;;;;;14.27;6.20;;;;;;;21.41;73.69;100198.72;126433;1086;102014;-80
2023/07/21 05:02:05;;;;;;;11.80;6.40;;;;;;;21.44;72.82;100206.69;126465;1089;104191;-78
2023/07/21 05:04:34;;;;;;;12.67;5.90;;;;;;;21.47;73.15;100211.98;126839;1086;101895;-78
2023/07/21 05:07:03;;;;;;;15.40;6.30;;;;;;;21.51;72.28;100219.97;126369;1086;102622;-75
2023/07/21 05:09:33;;;;;;;11.07;6.00;;;;;;;21.56;72.46;100227.04;126168;1086;104200;-79
2023/07/21 05:12:07;;;;;;;15.37;6.27;;;;;;;21.65;72.91;100218.90;126533;1089;104056;-77
2023/07/21 05:14:59;;;;;;;13.10;5.97;;;;;;;21.68;72.50;100222.40;128171;1089;101752;-78
2023/07/21 05:17:48;;;;;;;15.60;6.73;;;;;;;21.75;72.48;100228.52;126781;1090;102091;-77
2023/07/21 05:20:20;;;;;;;16.00;6.20;;;;;;;21.83;72.59;100225.74;127101;1086;104251;-77
2023/07/21 05:23:09;;;;;;;17.60;6.57;;;;;;;21.93;72.79;100229.18;127232;1086;102329;-78
2023/07/21 05:25:57;;;;;;;13.83;6.60;;;;;;;21.98;72.22;100221.97;126999;1086;102234;-80
2023/07/21 05:28:27;;;;;;;12.20;6.90;;;;;;;22.02;72.00;100221.89;126940;1086;104217;-81
2023/07/21 05:30:57;;;;;;;13.27;6.70;;;;;;;22.09;72.06;100222.67;126401;1086;104295;-82
2023/07/21 05:33:35;;;;;;;13.43;6.23;;;;;;;22.15;71.56;100219.90;127067;1086;101842;-79
2023/07/21 05:36:10;;;;;;;11.87;6.27;;;;;;;22.23;72.12;100217.10;126557;1086;102804;-78
2023/07/21 05:38:40;;;;;;;12.40;5.53;;;;;;;22.35;72.02;100221.40;126636;1086;104193;-79
2023/07/21 05:41:14;;;;;;;14.80;5.37;;;;;;;22.42;71.18;100228.38;126731;1086;104175;-80
2023/07/21 05:43:46;;;;;;;10.55;5.15;;;;;;;22.50;71.33;100230.92;127013;1086;102686;-76
2023/07/21 05:46:26;;;;;;;10.53;5.00;;;;;;;22.55;70.38;100232.63;126999;1086;102625;-79
2023/07/21 05:49:07;;;;;;;8.13;4.80;;;;;;;22.60;69.46;100228.06;127084;1086;102363;-73
2023/07/21 05:51:36;;;;;;;10.77;4.80;;;;;;;22.69;69.66;100234.14;126275;1086;102022;-75
2023/07/21 05:54:15;;;;;;;10.13;4.93;;;;;;;22.75;69.11;100236.70;126898;1086;102182;-79
2023/07/21 05:56:44;;;;;;;11.17;4.93;;;;;;;22.80;68.96;100234.84;126645;1086;102160;-77
2023/07/21 05:59:23;;;;;;;12.37;5.20;;;;;;;22.87;68.14;100244.50;126451;1086;102144;-82
2023/07/21 06:01:58;;;;;;;9.27;4.90;;;;;;;22.92;68.39;100241.73;126254;1086;104318;-78
2023/07/21 06:04:28;;;;;;;8.13;4.77;;;;;;;22.94;68.22;100248.83;126403;1086;104361;-79
2023/07/21 06:07:34;;;;;;;11.03;5.00;;;;;;;23.02;67.93;100253.16;126020;1089;104264;-73
2023/07/21 06:10:30;;;;;;;;;;;;;;;23.06;66.20;100260.20;126422;1086;104194;-78
2023/07/21 06:13:16;;;;;;;12.03;5.10;;;;;;;23.07;67.15;100259.30;126198;1086;101874;-76
2023/07/21 06:16:08;;;;;;;9.90;4.77;;;;;;;23.16;67.13;100259.16;125958;1086;104328;-74
2023/07/21 06:18:42;;;;;;;7.10;4.70;;;;;;;23.28;66.70;100269.61;126469;1086;104257;-75
2023/07/21 06:21:26;;;;;;;10.30;4.97;;;;;;;23.38;66.56;100266.75;126372;1086;104315;-75
2023/07/21 06:23:57;;;;;;;12.65;5.00;;;;;;;23.44;66.55;100256.78;126172;1090;104220;-74
2023/07/21 06:26:27;;;;;;;7.93;4.20;;;;;;;23.50;66.04;100264.69;126206;1086;101849;-71
2023/07/21 06:28:59;;;;;;;10.17;4.77;;;;;;;23.54;65.81;100264.62;126045;1086;104360;-75
2023/07/21 06:31:28;;;;;;;10.23;4.63;;;;;;;23.50;64.23;100259.33;126581;1086;104191;-73
2023/07/21 06:34:43;;;;;;;10.50;4.30;;;;;;;23.54;63.37;100270.84;126444;1086;102321;-75
2023/07/21 06:37:29;;;;;;;8.70;4.17;;;;;;;23.58;63.64;100259.16;126514;1086;104258;-80
2023/07/21 06:40:12;;;;;;;8.47;4.70;;;;;;;23.68;63.32;100266.09;127240;1089;104255;-74
2023/07/21 06:43:01;;;;;;;6.63;4.10;;;;;;;23.83;63.10;100267.52;125993;1086;104187;-73
2023/07/21 06:46:03;;;;;;;7.90;4.27;;;;;;;23.90;62.26;100262.06;125999;1086;101884;-73
2023/07/21 06:48:50;;;;;;;8.70;3.83;;;;;;;23.95;61.50;100249.42;127274;1085;104258;-76
2023/07/21 06:51:33;;;;;;;9.13;4.30;;;;;;;24.05;61.99;100257.22;126102;1089;104397;-74
2023/07/21 06:54:06;;;;;;;6.87;4.17;;;;;;;24.14;61.35;100263.30;127704;1086;104244;-76
2023/07/21 06:56:38;;;;;;;;;;;;;;;24.25;60.91;100269.27;126209;1086;104232;-74
2023/07/21 06:59:07;;;;;;;9.00;4.23;;;;;;;24.34;60.31;100269.05;126597;1086;101915;-77
2023/07/21 07:01:37;;;;;;;9.03;3.90;;;;;;;24.47;60.39;100271.42;126379;1086;104248;-75
2023/07/21 07:04:21;;;;;;;9.67;4.00;;;;;;;24.58;59.87;100267.56;126607;1086;104155;-75
2023/07/21 07:06:55;;;;;;;9.27;4.70;;;;;;;24.73;59.42;100265.42;126122;1089;104331;-75
2023/07/21 07:09:27;;;;;;;6.75;3.95;;;;;;;24.83;59.16;100266.91;127046;1089;104238;-75
2023/07/21 07:11:57;;;;;;;7.33;4.30;;;;;;;24.98;57.75;100270.09;125966;1089;104391;-75
2023/07/21 07:14:44;;;;;;;8.07;4.00;;;;;;;25.07;58.31;100264.47;126188;1086;104325;-73
2023/07/21 07:17:16;;;;;;;5.83;3.63;;;;;;;25.22;57.71;100276.59;127344;1086;102331;-75
2023/07/21 07:19:48;;;;;;;6.87;4.40;;;;;;;25.28;57.68;100280.01;126217;1087;102240;-75
2023/07/21 07:22:25;;;;;;;7.27;4.00;;;;;;;25.38;57.87;100279.75;127781;1085;102061;-76
2023/07/21 07:24:57;;;;;;;12.00;4.73;;;;;;;25.55;55.84;100287.31;128015;1085;101841;-75
2023/07/21 07:27:27;;;;;;;7.90;3.87;;;;;;;25.71;56.12;100282.34;127036;1086;102346;-75
2023/07/21 07:29:57;;;;;;;6.23;3.90;;;;;;;25.89;55.53;100287.16;127162;1086;101790;-76
2023/07/21 07:32:26;;;;;;;7.40;3.80;;;;;;;26.01;54.62;100281.44;126268;1090;104289;-75
2023/07/21 07:34:58;;;;;;;6.37;3.60;;;;;;;26.18;54.94;100271.96;126589;1086;104251;-76
2023/07/21 07:37:28;;;;;;;5.03;3.70;;;;;;;26.30;54.47;100279.62;126421;1086;104266;-74
2023/07/21 07:39:59;;;;;;;7.10;3.57;;;;;;;26.51;53.82;100280.70;126304;1086;104316;-76
2023/07/21 07:42:35;;;;;;;5.90;3.47;;;;;;;26.70;53.63;100280.11;127490;1085;101873;-75
2023/07/21 07:45:06;;;;;;;7.90;3.87;;;;;;;26.60;52.38;100278.63;125993;1086;103717;-77
2023/07/21 07:47:36;;;;;;;7.73;3.60;;;;;;;26.52;52.25;100286.95;126014;1086;103607;-76
2023/07/21 07:50:06;;;;;;;4.63;3.27;;;;;;;26.62;51.65;100282.16;126019;1087;104318;-73
2023/07/21 07:52:36;;;;;;;5.90;3.50;;;;;;;26.77;50.92;100286.15;127075;1086;104165;-73
2023/07/21 07:55:07;;;;;;;4.77;3.20;;;;;;;26.84;50.94;100277.80;126126;1086;104175;-74
2023/07/21 07:57:38;;;;;;;5.10;3.30;;;;;;;26.93;50.64;100292.77;126415;1086;104205;-75
2023/07/21 08:00:14;;;;;;;8.00;3.30;;;;;;;27.00;49.34;100296.11;125966;1085;104333;-72
2023/07/21 08:02:45;;;;;;;5.60;3.50;;;;;;;27.14;49.41;100301.87;126287;1086;104264;-72
2023/07/21 08:05:14;;;;;;;4.13;3.10;;;;;;;27.24;49.20;100299.75;125940;1086;104257;-71
2023/07/21 08:07:43;;;;;;;5.23;3.33;;;;;;;27.34;48.58;100297.62;125936;1086;104146;-75
2023/07/21 08:10:14;;;;;;;5.63;3.43;;;;;;;27.39;48.51;100301.01;125949;1086;104210;-74
2023/07/21 08:12:47;;;;;;;9.03;3.50;;;;;;;27.52;47.84;100302.31;126030;1086;104056;-75
2023/07/21 08:15:19;;;;;;;10.17;3.77;;;;;;;27.80;46.91;100306.66;126067;1085;104156;-73
2023/07/21 08:17:49;;;;;;;8.13;3.70;;;;;;;27.90;46.77;100297.25;126152;1086;104167;-72
2023/07/21 08:20:19;;;;;;;5.47;3.50;;;;;;;27.99;46.67;100298.75;125855;1089;104216;-72
2023/07/21 08:22:47;;;;;;;6.50;3.33;;;;;;;28.13;46.53;100299.06;125882;1086;104200;-74
2023/07/21 08:25:17;;;;;;;7.10;3.03;;;;;;;28.31;45.08;100294.75;125886;1089;101964;-74
2023/07/21 08:27:46;;;;;;;7.13;3.60;;;;;;;28.48;44.68;100299.41;126882;1089;104028;-74
2023/07/21 08:30:17;;;;;;;6.57;3.60;;;;;;;28.72;43.85;100298.47;125907;1086;104207;-72
2023/07/21 08:32:45;;;;;;;4.20;3.00;;;;;;;28.73;43.20;100308.34;126314;1086;104172;-74
2023/07/21 08:35:14;;;;;;;4.77;3.10;;;;;;;28.60;42.86;100313.39;126441;1086;101881;-76
2023/07/21 08:37:47;;;;;;;6.50;3.30;;;;;;;28.59;43.10;100307.09;126695;1086;104318;-79
2023/07/21 08:40:22;;;;;;;6.00;3.30;;;;;;;28.54;42.96;100306.38;127077;1086;101973;-77
2023/07/21 08:42:51;;;;;;;4.70;3.00;;;;;;;28.67;43.93;100309.47;127806;1086;102131;-75
2023/07/21 08:45:26;;;;;;;5.80;3.60;;;;;;;28.63;42.62;100308.73;126659;1086;101886;-77
2023/07/21 08:48:07;;;;;;;4.97;3.40;;;;;;;28.59;41.85;100323.28;126741;1086;102252;-77
2023/07/21 08:50:41;;;;;;;6.20;3.47;;;;;;;28.71;42.41;100310.23;126353;1089;102183;-77
2023/07/21 08:53:10;;;;;;;8.30;3.30;;;;;;;28.74;41.59;100305.58;127734;1086;101915;-79
2023/07/21 08:55:40;;;;;;;5.63;3.30;;;;;;;28.84;41.29;100315.05;127899;1085;101879;-81
2023/07/21 08:58:11;;;;;;;4.93;3.17;;;;;;;28.76;40.56;100309.08;128400;1086;101813;-79
2023/07/21 09:00:41;;;;;;;4.00;2.90;;;;;;;28.59;40.09;100312.48;127673;1086;103076;-78
2023/07/21 09:03:22;;;;;;;5.27;3.20;;;;;;;28.65;40.43;100311.36;127308;1086;101816;-81
2023/07/21 09:06:01;;;;;;;6.37;3.40;;;;;;;28.76;40.57;100305.51;126673;1089;101965;-81
2023/07/21 09:08:33;;;;;;;4.33;3.03;;;;;;;28.82;40.34;100316.05;126885;1086;102002;-77
2023/07/21 09:11:05;;;;;;;8.00;3.20;;;;;;;28.89;39.62;100320.25;126641;1086;104181;-79
2023/07/21 09:13:35;;;;;;;4.07;3.00;;;;;;;28.92;39.53;100311.11;127673;1086;102704;-81
2023/07/21 09:16:05;;;;;;;4.73;3.03;;;;;;;28.92;40.12;100317.41;126686;1086;104181;-78
2023/07/21 09:18:40;;;;;;;8.03;3.73;;;;;;;28.92;40.43;100320.12;127925;1086;104228;-81
2023/07/21 09:21:16;;;;;;;6.87;3.60;;;;;;;29.03;40.73;100314.22;126664;1086;104408;-77
2023/07/21 09:23:48;;;;;;;5.57;3.60;;;;;;;29.12;40.79;100310.23;126398;1086;104053;-76
2023/07/21 09:26:26;;;;;;;6.80;3.30;;;;;;;29.16;39.87;100317.27;127782;1084;101877;-78
2023/07/21 09:28:58;;;;;;;5.50;3.47;;;;;;;29.14;39.98;100314.64;126670;1085;101833;-78
2023/07/21 09:31:32;;;;;;;5.15;3.60;;;;;;;29.21;40.25;100315.27;126551;1089;104072;-77
2023/07/21 09:34:19;;;;;;;7.43;3.43;;;;;;;29.40;40.00;100307.20;126525;1086;102298;-77
2023/07/21 09:36:54;;;;;;;3.97;3.13;;;;;;;29.50;39.42;100326.56;126656;1086;102111;-78
2023/07/21 09:39:27;;;;;;;6.67;3.33;;;;;;;29.21;38.90;100326.94;126352;1089;104204;-78
2023/07/21 09:41:57;;;;;;;7.15;3.45;;;;;;;29.01;38.86;100327.78;126558;1089;104162;-77
2023/07/21 09:44:58;;;;;;;4.47;3.20;;;;;;;28.94;38.92;100328.16;128227;1085;102312;-76
2023/07/21 09:47:43;;;;;;;4.23;3.17;;;;;;;29.05;38.83;100332.12;126502;1086;104331;-79
2023/07/21 09:50:12;;;;;;;6.67;3.53;;;;;;;29.24;39.01;100339.45;127769;1085;104267;-76
2023/07/21 09:52:49;;;;;;;6.40;3.30;;;;;;;29.36;39.17;100336.20;126829;1086;102120;-77
2023/07/21 09:55:35;;;;;;;5.70;3.07;;;;;;;29.43;38.69;100325.97;127484;1085;101889;-75
2023/07/21 09:58:09;;;;;;;4.63;2.80;;;;;;;29.38;38.39;100328.02;127795;1085;104280;-79
2023/07/21 10:00:45;;;;;;;4.40;2.80;;;;;;;29.30;37.69;100331.06;126899;1086;102069;-80
2023/07/21 10:03:15;;;;;;;3.47;3.00;;;;;;;29.07;37.63;100323.95;127884;1086;101827;-78
2023/07/21 10:05:46;;;;;;;3.83;2.70;;;;;;;28.91;37.04;100329.16;126888;1086;104152;-82
2023/07/21 10:08:16;;;;;;;6.93;3.33;;;;;;;28.78;37.76;100323.41;127944;1086;101806;-80
2023/07/21 10:10:46;;;;;;;6.20;3.30;;;;;;;28.80;37.29;100332.31;128266;1085;101823;-80
2023/07/21 10:13:15;;;;;;;4.73;2.83;;;;;;;28.71;37.66;100332.70;126994;1089;104248;-78
2023/07/21 10:15:50;;;;;;;5.27;3.30;;;;;;;28.66;36.96;100316.70;127409;1086;102172;-79
2023/07/21 10:18:20;;;;;;;4.67;2.80;;;;;;;28.63;36.77;100318.66;127373;1086;102843;-78
2023/07/21 10:20:51;;;;;;;4.20;2.90;;;;;;;28.61;36.89;100312.42;126910;1086;104613;-80
2023/07/21 10:23:29;;;;;;;3.83;2.60;;;;;;;28.69;36.82;100315.70;126856;1086;104715;-81
2023/07/21 10:26:01;;;;;;;4.43;2.80;;;;;;;28.86;36.75;100309.58;127170;1086;101944;-76
2023/07/21 10:28:36;;;;;;;6.28;3.08;;;;;;;28.98;36.43;100309.02;126739;1086;104302;-81
2023/07/21 10:31:36;;;;;;;4.50;2.90;;;;;;;29.08;36.00;100305.91;127037;1086;101921;-87
2023/07/21 10:34:09;;;;;;;4.17;2.70;;;;;;;28.85;35.49;100305.98;126705;1086;106938;-82
2023/07/21 10:36:48;;;;;;;3.90;2.60;;;;;;;28.67;34.91;100310.37;127010;1086;104254;-88
2023/07/21 10:39:21;;;;;;;3.67;2.70;;;;;;;28.64;35.62;100301.50;128052;1086;101890;-82
2023/07/21 10:41:51;;;;;;;3.70;2.50;;;;;;;28.63;35.92;100302.46;127480;1085;104221;-80
2023/07/21 10:44:22;;;;;;;4.50;3.07;;;;;;;28.58;35.21;100301.72;127949;1085;118623;-80
2023/07/21 10:46:55;;;;;;;5.90;2.87;;;;;;;28.56;35.15;100301.79;126765;1086;104152;-84
2023/07/21 10:49:33;;;;;;;5.87;2.90;;;;;;;28.42;34.97;100298.80;127482;1086;104110;-82
2023/07/21 10:55:28;;;;;;;6.77;3.27;;;;;;;28.48;35.22;100299.41;127764;1086;101902;-85
2023/07/21 10:58:01;;;;;;;3.07;2.77;;;;;;;28.61;35.64;100297.13;128262;1086;102109;-87
2023/07/21 11:00:46;;;;;;;4.83;3.00;;;;;;;28.80;35.70;100290.95;129156;1085;101582;-87
2023/07/21 11:03:24;;;;;;;3.75;2.77;;;;;;;28.76;35.44;100292.88;127795;1089;104232;-81
2023/07/21 11:05:57;;;;;;;4.33;2.90;;;;;;;28.72;35.73;100311.97;128496;1085;111226;-77
2023/07/21 11:08:52;;;;;;;4.60;2.87;;;;;;;28.66;35.90;100302.33;127728;1085;104063;-79
2023/07/21 11:11:25;;;;;;;4.83;2.90;;;;;;;28.72;35.88;100307.47;128133;1085;101913;-79
2023/07/21 11:13:59;;;;;;;2.60;2.40;;;;;;;28.82;35.95;100289.05;128081;1085;104165;-79
2023/07/21 11:16:31;;;;;;;4.73;2.70;;;;;;;28.84;35.23;100298.84;126602;1086;104171;-79
2023/07/21 11:19:03;;;;;;;5.87;2.97;;;;;;;28.77;34.66;100301.87;127342;1086;101857;-81
2023/07/21 11:21:52;;;;;;;4.23;2.70;;;;;;;28.73;34.69;100292.14;127278;1089;101980;-81
2023/07/21 11:24:25;;;;;;;4.23;3.00;;;;;;;28.78;35.14;100290.11;127546;1089;101962;-78
2023/07/21 11:26:59;;;;;;;4.97;3.37;;;;;;;28.93;35.28;100286.74;126249;1086;104456;-78
2023/07/21 11:29:37;;;;;;;3.33;2.57;;;;;;;29.02;35.16;100296.27;126200;1086;104734;-79
2023/07/21 11:32:20;;;;;;;4.67;2.80;;;;;;;28.95;35.03;100306.48;127056;1086;101925;-81
2023/07/21 11:35:07;;;;;;;5.20;2.90;;;;;;;28.88;34.93;100296.88;127017;1086;104203;-81
2023/07/21 11:37:40;;;;;;;4.77;2.80;;;;;;;28.76;34.65;100292.01;129020;1085;101840;-83